Airfield :
LOGIN :

Register | Disclaimer

   EN    FR    IT 

 










Legend :    VFR   Marginal VFR   IFR   Intensive IFR   Very Intensive IFR
Visi :
Ceiling :
>= 8 km
>= 3000ft
5 to 8 km
1000 to 3000 ft
1500m to 5 km
500 to 1000 ft
800 to 1500m
200 to 500 ft
< 800m
< 200 ft
Symbols :   Thunderstorms  Fog  Heavy snow  Heavy precipitations  Wind > 20 kt
SIGMETs :     Misc.  Thunderstorms  Icing  Turbulence  Mountain Waves  Volcanic Ashes






- Airport Elevation : 90 ft
- IATA code : NTE


LFRS - Nantes

CURRENT METAR :
  • 091700Z AUTO 09010KT CAVOK 24/07 Q1019 NOSIG

EXPIRED METARs :
  • 091630Z AUTO 11009KT 080V140 CAVOK 24/07 Q1019 NOSIG
  • 091600Z AUTO 10009KT 080V140 CAVOK 25/08 Q1019 NOSIG
  • 091530Z AUTO 12008KT 090V170 CAVOK 24/09 Q1019 NOSIG
  • 091500Z AUTO VRB07KT CAVOK 24/08 Q1019 NOSIG
  • 091430Z AUTO 15006KT 070V200 CAVOK 25/08 Q1020 NOSIG

TAF TAF LFRS
Valid from the 09 at 18:00 until the 11 at 00:00 UTC


091700Z 0918/1024 10008KT CAVOK
BECMG 1022/1024 3000 BR
ATIS : +33 2 40 05 12 74



MET'MAP, your aeronautical weather chart ! - Copyright ORBIFLY December 2007 - Disclaimer

ORBIFLY MET'MAP TEAM :

Programming & Development : Alexandra Zaïnal
Concept & original design : Baudouin d'Aumeries
Assistance for programming : Marc-Olivier Méhu
Technical & hardware support : Manuel Goepfert

Contact : metmap@orbifly.com




SOURCES & CREDITS :

   NOAA